DNMN

Minna Airport

Minna, Nigeria
METAR DNMN 201600Z 12005KT CAVOK 35/07 Q1006
Observed Flight Rules
Jan-20 @ 16:00 UTC (13 hours ago) Visual Flight Rules
Wind Visibility Clouds
120° at 5 knots 10,000+ meters
  • Clear skies
Temperatures Readings
Current 35°C / 95°F
Dewpoint 7°C / 45°F
Humidity 18%
Altimeter 29.7" Hg
Pressure 1006 hPa
Elevation 254
METAR DNMN 201600Z 12005KT CAVOK 35/07 Q1006
Observed Flight Rules
Jan-20 @ 16:00 UTC
(13 hours ago)
VFR
Wind Visibility
120° at 5 knots 10,000+ meters
Clouds
  • Clear skies
Temperature Dewpoint
35°C / 95°F 7°C / 45°F
Humidity Altimeter Pressure
18% 29.7" Hg 1006 hPa